Time;durP1;ratioP1;P1;durP2;ratioP2;P2;SDS_P1;SDS_P2;PMS_P1;PMS_P2;Temp;Humidity;BMP_temperature;BMP_pressure;BME280_temperature;BME280_humidity;BME280_pressure;Samples;Min_cycle;Max_cycle;Signal;HPM_P1;HPM_P2
2021/11/30 00:01:54;;;;;;;11.10;6.55;;;1.40;99.90;;;;;;5091257;28;20039;-73
2021/11/30 00:04:20;;;;;;;11.13;7.00;;;1.50;99.90;;;;;;5089740;28;20024;-73
2021/11/30 00:06:47;;;;;;;9.27;6.20;;;1.50;99.90;;;;;;5091283;28;20036;-73
2021/11/30 00:12:10;;;;;;;10.30;6.30;;;1.60;99.90;;;;;;5070432;28;20044;-73
2021/11/30 00:14:37;;;;;;;11.18;6.28;;;1.70;99.90;;;;;;5091419;28;20025;-74
2021/11/30 00:17:05;;;;;;;11.93;6.97;;;1.70;99.90;;;;;;5090282;28;20027;-72
2021/11/30 00:19:31;;;;;;;11.05;6.45;;;1.70;99.90;;;;;;5091147;28;20020;-73
2021/11/30 00:21:57;;;;;;;11.30;6.50;;;1.70;99.90;;;;;;5089768;28;20039;-72
2021/11/30 00:24:27;;;;;;;9.60;6.03;;;1.60;99.90;;;;;;5091388;28;20032;-73
2021/11/30 00:26:53;;;;;;;11.23;6.22;;;1.60;99.90;;;;;;5085530;28;20032;-70
2021/11/30 00:29:19;;;;;;;8.75;5.80;;;1.50;99.90;;;;;;5090555;28;20534;-72
2021/11/30 00:31:44;;;;;;;8.82;6.07;;;1.60;99.90;;;;;;5090630;28;20032;-72
2021/11/30 00:34:10;;;;;;;9.60;6.40;;;1.50;99.90;;;;;;5090462;28;20095;-72
2021/11/30 00:36:36;;;;;;;9.75;5.80;;;1.50;99.90;;;;;;5090686;28;20028;-72
2021/11/30 00:39:02;;;;;;;8.07;5.35;;;1.50;99.90;;;;;;5093526;28;20099;-72
2021/11/30 00:41:28;;;;;;;11.55;5.18;;;1.40;99.90;;;;;;5094843;28;20032;-72
2021/11/30 00:43:55;;;;;;;9.02;5.63;;;1.30;99.90;;;;;;5094037;28;20035;-71
2021/11/30 00:46:34;;;;;;;11.23;6.57;;;1.30;99.90;;;;;;5093200;28;20380;-72
2021/11/30 00:49:01;;;;;;;12.68;6.32;;;1.20;99.90;;;;;;5092480;28;20064;-72
2021/11/30 00:51:27;;;;;;;9.52;6.20;;;1.20;99.90;;;;;;5094496;28;20027;-72
2021/11/30 00:53:53;;;;;;;13.10;6.13;;;1.20;99.90;;;;;;5094204;28;20037;-69
2021/11/30 00:56:19;;;;;;;9.25;5.65;;;1.20;99.90;;;;;;5093542;28;20120;-71
2021/11/30 00:58:46;;;;;;;8.30;5.60;;;1.20;99.90;;;;;;5094154;28;20028;-73
2021/11/30 01:01:12;;;;;;;9.18;5.30;;;1.20;99.90;;;;;;5094264;28;20103;-72
2021/11/30 01:03:39;;;;;;;7.00;4.85;;;1.20;99.90;;;;;;5094996;28;20476;-73
2021/11/30 01:06:05;;;;;;;8.43;5.30;;;1.20;99.90;;;;;;5093169;28;20029;-70
2021/11/30 01:08:31;;;;;;;5.35;4.55;;;1.20;99.90;;;;;;5094268;28;20036;-72
2021/11/30 01:10:57;;;;;;;6.85;5.15;;;1.30;99.90;;;;;;5093229;28;20035;-72
2021/11/30 01:13:23;;;;;;;6.25;4.50;;;1.30;99.90;;;;;;5094030;28;20032;-72
2021/11/30 01:15:49;;;;;;;6.28;4.82;;;1.30;99.90;;;;;;5093859;28;20028;-73
2021/11/30 01:18:15;;;;;;;6.13;4.15;;;1.30;99.90;;;;;;5092745;28;20040;-72
2021/11/30 01:20:41;;;;;;;7.15;4.57;;;1.30;99.90;;;;;;5093533;28;20506;-73
2021/11/30 01:23:07;;;;;;;6.72;3.97;;;1.30;99.90;;;;;;5093098;28;20036;-72
2021/11/30 01:25:34;;;;;;;10.30;4.63;;;1.30;99.90;;;;;;5093090;28;20100;-72
2021/11/30 01:28:00;;;;;;;7.03;4.30;;;1.30;99.90;;;;;;5092105;28;20028;-72
2021/11/30 01:30:26;;;;;;;8.98;3.92;;;1.30;99.90;;;;;;5093336;28;20028;-72
2021/11/30 01:32:52;;;;;;;10.90;4.50;;;1.40;99.90;;;;;;5093970;28;20027;-68
2021/11/30 01:35:19;;;;;;;6.45;4.68;;;1.40;99.90;;;;;;5093249;28;20453;-72
2021/11/30 01:37:46;;;;;;;8.73;4.28;;;1.40;99.90;;;;;;5093155;28;20029;-72
2021/11/30 01:40:17;;;;;;;5.90;3.58;;;1.30;99.90;;;;;;5092643;28;20123;-72
2021/11/30 01:42:45;;;;;;;7.68;4.53;;;1.40;99.90;;;;;;5093436;28;20032;-72
2021/11/30 01:45:20;;;;;;;5.53;3.97;;;1.40;99.90;;;;;;5092606;28;20523;-69
2021/11/30 01:50:32;;;;;;;4.18;3.63;;;1.40;99.90;;;;;;5092374;28;20067;-71
2021/11/30 01:52:58;;;;;;;8.27;3.80;;;1.40;99.90;;;;;;5092374;28;20075;-71
2021/11/30 01:55:24;;;;;;;6.95;3.83;;;1.50;99.90;;;;;;5093057;28;20051;-72
2021/11/30 01:57:52;;;;;;;4.90;3.53;;;1.40;99.90;;;;;;5093089;28;20032;-71
2021/11/30 02:00:19;;;;;;;6.50;3.47;;;1.40;99.90;;;;;;5092353;28;20032;-71
2021/11/30 02:02:45;;;;;;;4.65;3.38;;;1.50;99.90;;;;;;5092629;28;20089;-72
2021/11/30 02:05:11;;;;;;;7.43;2.75;;;1.40;99.90;;;;;;5092390;28;20020;-71
2021/11/30 02:07:38;;;;;;;7.95;3.50;;;1.50;99.90;;;;;;5092986;28;20475;-71
2021/11/30 02:10:08;;;;;;;6.32;2.60;;;1.60;99.90;;;;;;5092180;28;20047;-71
2021/11/30 02:12:35;;;;;;;8.33;3.40;;;1.60;99.90;;;;;;5093140;28;20053;-72
2021/11/30 02:15:02;;;;;;;5.38;3.05;;;1.70;99.90;;;;;;5091813;28;20028;-71
2021/11/30 02:17:27;;;;;;;6.32;3.17;;;1.60;99.90;;;;;;5092999;28;20039;-71
2021/11/30 02:20:00;;;;;;;7.93;2.90;;;1.60;99.90;;;;;;5092688;28;20372;-68
2021/11/30 02:22:28;;;;;;;7.28;3.33;;;1.60;99.90;;;;;;5093137;28;20024;-72
2021/11/30 02:24:54;;;;;;;8.95;3.38;;;1.60;99.90;;;;;;5092122;28;20032;-68
2021/11/30 02:27:20;;;;;;;4.95;2.30;;;1.60;99.90;;;;;;5092297;28;20470;-71
2021/11/30 02:29:46;;;;;;;5.82;2.50;;;1.70;99.90;;;;;;5092442;28;20469;-72
2021/11/30 02:32:12;;;;;;;7.18;2.35;;;1.70;99.90;;;;;;5091856;28;20492;-72
2021/11/30 02:34:39;;;;;;;4.15;2.60;;;1.70;99.90;;;;;;5092620;28;20104;-73
2021/11/30 02:37:06;;;;;;;5.88;2.70;;;1.70;99.90;;;;;;5091741;28;20046;-72
2021/11/30 02:39:33;;;;;;;4.32;2.28;;;1.60;99.90;;;;;;5090538;28;20040;-72
2021/11/30 02:42:02;;;;;;;3.95;2.28;;;1.70;99.90;;;;;;5071352;28;20120;-72
2021/11/30 02:44:29;;;;;;;6.85;2.72;;;1.70;99.90;;;;;;5072261;28;20095;-72
2021/11/30 02:46:58;;;;;;;5.82;2.40;;;1.70;99.90;;;;;;5079955;28;20024;-68
2021/11/30 02:49:27;;;;;;;6.50;2.30;;;1.60;99.90;;;;;;5091738;28;20486;-71
2021/11/30 02:52:02;;;;;;;4.93;2.00;;;1.60;99.90;;;;;;5092432;28;20020;-72
2021/11/30 02:54:28;;;;;;;5.20;2.40;;;1.50;99.90;;;;;;5076509;28;20028;-72
2021/11/30 02:56:57;;;;;;;4.63;2.33;;;1.50;99.90;;;;;;5079542;28;20480;-68
2021/11/30 02:59:29;;;;;;;6.63;2.30;;;1.50;99.90;;;;;;5089408;28;20028;-72
2021/11/30 03:02:13;;;;;;;3.35;2.22;;;1.50;99.90;;;;;;5071773;28;20075;-68
2021/11/30 03:04:41;;;;;;;3.30;1.58;;;1.50;99.90;;;;;;5072039;28;20024;-71
2021/11/30 03:07:12;;;;;;;9.48;2.85;;;1.50;99.90;;;;;;5079869;28;20062;-72
2021/11/30 03:09:40;;;;;;;2.45;2.10;;;1.40;99.90;;;;;;5092124;28;20064;-71
2021/11/30 03:12:07;;;;;;;5.78;1.80;;;1.40;99.90;;;;;;5091219;28;20488;-71
2021/11/30 03:14:33;;;;;;;6.53;1.80;;;1.30;99.90;;;;;;5091741;28;20425;-72
2021/11/30 03:16:59;;;;;;;4.18;1.70;;;1.30;99.90;;;;;;5090769;28;20020;-72
2021/11/30 03:19:27;;;;;;;2.58;1.38;;;1.30;99.90;;;;;;5091769;28;20111;-72
2021/11/30 03:21:53;;;;;;;4.20;1.40;;;1.20;99.90;;;;;;5091395;28;20032;-71
2021/11/30 03:24:19;;;;;;;6.10;1.80;;;1.20;99.90;;;;;;5070662;28;20048;-71
2021/11/30 03:26:45;;;;;;;3.60;1.58;;;1.20;99.90;;;;;;5071452;28;20029;-72
2021/11/30 03:29:12;;;;;;;4.30;1.73;;;1.20;99.90;;;;;;5070821;28;20428;-71
2021/11/30 03:34:09;;;;;;;2.75;1.80;;;1.20;99.90;;;;;;5088136;28;20354;-72
2021/11/30 03:36:36;;;;;;;3.03;1.77;;;1.20;99.90;;;;;;5090881;28;20118;-71
2021/11/30 03:39:12;;;;;;;1.98;1.75;;;1.20;99.90;;;;;;5089780;28;20024;-71
2021/11/30 03:41:38;;;;;;;3.05;1.58;;;1.30;99.90;;;;;;5088081;28;20032;-72
2021/11/30 03:44:06;;;;;;;3.38;1.90;;;1.30;99.90;;;;;;5088814;28;20024;-72
2021/11/30 03:46:33;;;;;;;4.40;1.48;;;1.40;99.90;;;;;;5090722;28;20102;-71
2021/11/30 03:49:03;;;;;;;3.72;1.83;;;1.40;99.90;;;;;;5089582;28;20121;-69
2021/11/30 03:51:29;;;;;;;3.70;1.30;;;1.40;99.90;;;;;;5089377;28;20561;-72
2021/11/30 03:53:54;;;;;;;3.55;1.50;;;1.40;99.90;;;;;;5089607;28;20111;-72
2021/11/30 03:56:20;;;;;;;4.72;1.65;;;1.60;99.90;;;;;;5088050;28;20039;-71
2021/11/30 03:58:46;;;;;;;8.50;1.60;;;1.60;99.90;;;;;;5090073;28;20074;-71
2021/11/30 04:01:12;;;;;;;7.95;1.83;;;1.70;99.90;;;;;;5089186;28;20069;-71
2021/11/30 04:03:40;;;;;;;5.07;1.45;;;1.70;99.90;;;;;;5087305;28;20028;-72
2021/11/30 04:06:07;;;;;;;4.18;1.60;;;1.70;99.90;;;;;;5089374;28;20028;-68
2021/11/30 04:08:34;;;;;;;3.65;1.50;;;1.70;99.90;;;;;;5089428;28;20099;-71
2021/11/30 04:11:00;;;;;;;4.78;1.42;;;1.70;99.90;;;;;;5089477;28;20031;-71
2021/11/30 04:13:26;;;;;;;4.22;1.40;;;1.80;99.90;;;;;;5092069;28;20032;-71
2021/11/30 04:15:51;;;;;;;3.42;1.45;;;1.80;99.90;;;;;;5094346;28;20020;-71
2021/11/30 04:18:17;;;;;;;7.65;1.80;;;1.80;99.90;;;;;;5094254;28;20594;-71
2021/11/30 04:20:43;;;;;;;5.55;2.20;;;1.80;99.90;;;;;;5095328;28;20372;-74
2021/11/30 04:23:09;;;;;;;3.55;1.58;;;1.70;99.90;;;;;;5092699;28;20061;-71
2021/11/30 04:25:35;;;;;;;2.30;1.52;;;1.70;99.90;;;;;;5093929;28;20024;-71
2021/11/30 04:28:01;;;;;;;6.90;2.67;;;1.70;99.90;;;;;;5091145;28;20024;-71
2021/11/30 04:30:27;;;;;;;3.78;1.90;;;1.70;99.90;;;;;;5093622;28;20044;-71
2021/11/30 04:32:53;;;;;;;9.20;2.10;;;1.70;99.90;;;;;;5093005;28;20049;-72
2021/11/30 04:35:19;;;;;;;5.30;1.83;;;1.60;99.90;;;;;;5090301;28;20420;-72
2021/11/30 04:37:45;;;;;;;6.50;2.17;;;1.50;99.90;;;;;;5092779;28;20035;-71
2021/11/30 04:40:13;;;;;;;6.97;2.05;;;1.50;99.90;;;;;;5090843;28;20028;-72
2021/11/30 04:42:42;;;;;;;4.82;2.90;;;1.50;99.90;;;;;;5090065;28;20059;-72
2021/11/30 04:45:13;;;;;;;5.57;2.10;;;1.50;99.90;;;;;;5092572;28;20358;-72
2021/11/30 04:47:41;;;;;;;6.93;2.40;;;1.50;99.90;;;;;;5090975;28;20027;-72
2021/11/30 04:50:24;;;;;;;5.10;2.42;;;1.50;99.90;;;;;;5092662;28;20401;-73
2021/11/30 04:52:51;;;;;;;3.60;1.95;;;1.50;99.90;;;;;;5091874;28;20028;-72
2021/11/30 04:55:26;;;;;;;3.38;1.92;;;1.40;99.90;;;;;;5092478;28;20129;-72
2021/11/30 04:57:54;;;;;;;4.25;2.08;;;1.40;99.90;;;;;;5093207;28;20024;-71
2021/11/30 05:00:20;;;;;;;3.35;1.90;;;1.40;99.90;;;;;;5090021;28;20032;-72
2021/11/30 05:02:47;;;;;;;6.65;2.20;;;1.40;99.90;;;;;;5092296;28;20059;-72
2021/11/30 05:05:13;;;;;;;4.75;1.98;;;1.50;99.90;;;;;;5092258;28;20441;-72
2021/11/30 05:07:41;;;;;;;7.57;2.35;;;1.40;99.90;;;;;;5090070;28;20481;-72
2021/11/30 05:10:07;;;;;;;3.97;1.98;;;1.40;99.90;;;;;;5088451;28;20422;-72
2021/11/30 05:12:33;;;;;;;4.30;1.88;;;1.40;99.90;;;;;;5091180;28;20023;-75
2021/11/30 05:14:58;;;;;;;3.58;2.08;;;1.50;99.90;;;;;;5072874;28;20421;-70
2021/11/30 05:17:25;;;;;;;5.03;1.92;;;1.50;99.90;;;;;;5073376;28;20032;-76
2021/11/30 05:19:51;;;;;;;5.20;2.35;;;1.50;99.90;;;;;;5091534;28;20024;-73
2021/11/30 05:22:17;;;;;;;3.63;2.13;;;1.60;99.90;;;;;;5090948;28;20621;-72
2021/11/30 05:24:42;;;;;;;5.57;2.33;;;1.50;99.90;;;;;;5086069;28;20032;-73
2021/11/30 05:27:08;;;;;;;3.17;2.30;;;1.50;99.90;;;;;;5092385;28;20024;-70
2021/11/30 05:29:34;;;;;;;4.53;2.70;;;1.50;99.90;;;;;;5091841;28;20065;-72
2021/11/30 05:32:00;;;;;;;5.55;2.45;;;1.40;99.90;;;;;;5090952;28;20023;-72
2021/11/30 05:34:26;;;;;;;7.25;2.83;;;1.40;99.90;;;;;;5088888;28;20021;-72
2021/11/30 05:36:52;;;;;;;4.90;2.47;;;1.30;99.90;;;;;;5073460;28;20032;-72
2021/11/30 05:39:18;;;;;;;6.22;2.55;;;1.40;99.90;;;;;;5081818;28;20652;-72
2021/11/30 05:41:43;;;;;;;4.03;2.47;;;1.30;99.90;;;;;;5092229;28;20024;-70
2021/11/30 05:44:09;;;;;;;4.90;3.03;;;1.30;99.90;;;;;;5090856;28;20457;-72
2021/11/30 05:46:36;;;;;;;6.93;2.70;;;1.30;99.90;;;;;;5091856;28;20024;-72
2021/11/30 05:49:06;;;;;;;5.50;3.10;;;1.30;99.90;;;;;;5091197;28;20036;-72
2021/11/30 05:51:34;;;;;;;6.63;2.90;;;1.30;99.90;;;;;;5092201;28;20027;-71
2021/11/30 05:54:00;;;;;;;7.30;2.67;;;1.30;99.90;;;;;;5089042;28;20042;-69
2021/11/30 05:56:27;;;;;;;7.25;2.75;;;1.30;99.90;;;;;;5092109;28;20031;-72
2021/11/30 05:58:52;;;;;;;6.13;3.03;;;1.20;99.90;;;;;;5091101;28;20028;-71
2021/11/30 06:01:25;;;;;;;4.82;3.08;;;1.20;99.90;;;;;;5090737;28;20031;-73
2021/11/30 06:06:20;;;;;;;10.32;3.63;;;1.20;99.90;;;;;;5085163;28;20032;-72
2021/11/30 06:08:46;;;;;;;6.60;3.65;;;1.20;99.90;;;;;;5091837;28;20032;-71
2021/11/30 06:11:12;;;;;;;6.93;3.20;;;1.20;99.90;;;;;;5090943;28;20026;-71
2021/11/30 06:13:38;;;;;;;5.55;3.17;;;1.20;99.90;;;;;;5091310;28;20032;-74
2021/11/30 06:16:04;;;;;;;5.07;3.63;;;1.20;99.90;;;;;;5089916;28;20096;-73
2021/11/30 06:18:30;;;;;;;6.53;3.35;;;1.20;99.90;;;;;;5074378;28;20029;-74
2021/11/30 06:20:57;;;;;;;5.25;3.05;;;1.20;99.90;;;;;;5072564;28;20158;-69
2021/11/30 06:23:24;;;;;;;7.45;3.60;;;1.20;99.90;;;;;;5087502;28;20514;-72
2021/11/30 06:25:50;;;;;;;5.35;3.20;;;1.20;99.90;;;;;;5092526;28;20405;-71
2021/11/30 06:28:16;;;;;;;7.07;3.67;;;1.10;99.90;;;;;;5091486;28;20020;-71
2021/11/30 06:30:42;;;;;;;4.95;3.63;;;1.10;99.90;;;;;;5092935;28;20031;-72
2021/11/30 06:33:07;;;;;;;8.30;3.80;;;1.10;99.90;;;;;;5091431;28;20028;-72
2021/11/30 06:35:36;;;;;;;6.82;4.10;;;1.00;99.90;;;;;;5092310;28;20089;-72
2021/11/30 06:38:02;;;;;;;6.93;3.92;;;1.00;99.90;;;;;;5091664;28;20098;-71
2021/11/30 06:40:28;;;;;;;7.95;4.40;;;0.90;99.90;;;;;;5092269;28;20157;-72
2021/11/30 06:42:53;;;;;;;9.32;4.30;;;0.80;99.90;;;;;;5092807;28;20036;-73
2021/11/30 06:45:19;;;;;;;10.32;4.18;;;0.70;99.90;;;;;;5091542;28;20129;-70
2021/11/30 06:47:45;;;;;;;7.28;4.18;;;0.70;99.90;;;;;;5092291;28;20508;-74
2021/11/30 06:50:11;;;;;;;8.55;3.70;;;0.80;99.90;;;;;;5091833;28;20056;-72
2021/11/30 06:52:38;;;;;;;7.78;4.65;;;0.80;99.90;;;;;;5091884;28;20530;-74
2021/11/30 06:55:06;;;;;;;7.18;4.00;;;0.80;99.90;;;;;;5090216;28;20028;-76
2021/11/30 06:57:32;;;;;;;9.15;4.60;;;0.80;99.90;;;;;;5092339;28;20032;-72
2021/11/30 07:00:05;;;;;;;11.65;3.95;;;0.80;99.90;;;;;;5091466;28;20028;-69
2021/11/30 07:02:33;;;;;;;12.25;3.50;;;0.80;99.90;;;;;;5091743;28;20028;-73
2021/11/30 07:05:12;;;;;;;12.00;4.07;;;0.80;99.90;;;;;;5094342;28;20054;-69
2021/11/30 07:08:11;;;;;;;8.63;3.72;;;0.80;99.90;;;;;;5101064;28;20048;-74
2021/11/30 07:10:48;;;;;;;7.23;3.53;;;0.80;99.90;;;;;;5091246;28;20040;-73
2021/11/30 07:13:26;;;;;;;8.73;3.97;;;0.80;99.90;;;;;;5090851;28;20305;-74
2021/11/30 07:16:03;;;;;;;5.80;3.40;;;0.80;99.90;;;;;;5091748;28;20069;-73
2021/11/30 07:18:30;;;;;;;5.72;3.30;;;0.80;99.90;;;;;;5092356;28;20049;-73
2021/11/30 07:20:57;;;;;;;9.63;3.67;;;0.80;99.90;;;;;;5107858;28;20023;-73
2021/11/30 07:23:24;;;;;;;6.55;2.67;;;0.80;99.90;;;;;;5085080;28;20024;-73
2021/11/30 07:25:52;;;;;;;5.30;3.30;;;0.90;99.90;;;;;;5089907;28;20036;-73
2021/11/30 07:28:28;;;;;;;10.07;3.00;;;0.90;99.90;;;;;;5088620;28;20049;-73
2021/11/30 07:30:59;;;;;;;6.47;2.90;;;0.90;99.90;;;;;;5090975;28;20028;-73
2021/11/30 07:33:25;;;;;;;5.88;2.58;;;0.90;99.90;;;;;;5090622;28;20035;-73
2021/11/30 07:35:51;;;;;;;8.43;3.08;;;0.90;99.90;;;;;;5090044;28;20111;-73
2021/11/30 07:38:17;;;;;;;3.05;2.50;;;1.00;99.90;;;;;;5090606;28;20102;-75
2021/11/30 07:40:43;;;;;;;4.03;2.90;;;1.00;99.90;;;;;;5088408;28;20107;-73
2021/11/30 07:43:09;;;;;;;5.68;2.28;;;1.00;99.90;;;;;;5090486;28;20535;-74
2021/11/30 07:45:34;;;;;;;4.07;2.80;;;1.10;99.90;;;;;;5091211;28;20477;-77
2021/11/30 07:48:03;;;;;;;8.60;2.00;;;1.10;99.90;;;;;;5092189;28;20390;-70
2021/11/30 07:50:29;;;;;;;3.35;2.45;;;1.10;99.90;;;;;;5095161;28;20047;-74
2021/11/30 07:52:54;;;;;;;5.68;2.55;;;1.20;99.90;;;;;;5095571;28;20030;-73
2021/11/30 07:55:20;;;;;;;3.63;2.10;;;1.10;99.90;;;;;;5094497;28;20082;-74
2021/11/30 07:57:46;;;;;;;3.95;2.22;;;1.20;99.90;;;;;;5094333;28;20028;-74
2021/11/30 08:00:16;;;;;;;5.47;2.13;;;1.20;99.90;;;;;;5094337;28;20067;-74
2021/11/30 08:02:42;;;;;;;3.10;1.85;;;1.20;99.90;;;;;;5095417;28;20050;-75
2021/11/30 08:05:10;;;;;;;2.75;2.30;;;1.30;99.90;;;;;;5091780;28;20078;-74
2021/11/30 08:07:36;;;;;;;4.57;2.10;;;1.30;99.90;;;;;;5090512;28;20384;-74
2021/11/30 08:10:07;;;;;;;3.65;1.83;;;1.30;99.90;;;;;;5093765;28;20028;-70
2021/11/30 08:12:33;;;;;;;4.00;2.00;;;1.30;99.90;;;;;;5094971;28;20028;-73
2021/11/30 08:14:58;;;;;;;2.47;1.75;;;1.30;99.90;;;;;;5095261;28;20027;-74
2021/11/30 08:17:24;;;;;;;2.88;2.13;;;1.30;99.90;;;;;;5094451;28;20024;-74
2021/11/30 08:19:50;;;;;;;5.28;2.17;;;1.20;99.90;;;;;;5094615;28;20081;-75
2021/11/30 08:22:16;;;;;;;6.93;2.20;;;1.30;99.90;;;;;;5094185;28;20077;-74
2021/11/30 08:24:43;;;;;;;2.97;1.88;;;1.30;99.90;;;;;;5094664;28;20103;-72
2021/11/30 08:27:10;;;;;;;1.75;1.42;;;1.30;99.90;;;;;;5094252;28;20093;-74
2021/11/30 08:29:39;;;;;;;4.88;1.90;;;1.30;99.90;;;;;;5094287;28;20046;-74
2021/11/30 08:32:07;;;;;;;3.50;1.92;;;1.30;99.90;;;;;;5094166;28;20496;-73
2021/11/30 08:34:33;;;;;;;5.15;2.38;;;1.30;99.90;;;;;;5094610;28;20093;-74
2021/11/30 08:36:58;;;;;;;2.30;1.60;;;1.40;99.90;;;;;;5093274;28;20024;-73
2021/11/30 08:39:25;;;;;;;4.53;1.65;;;1.40;99.90;;;;;;5093568;28;20032;-74
2021/11/30 08:41:51;;;;;;;3.53;1.98;;;1.40;99.90;;;;;;5094827;28;20032;-75
2021/11/30 08:44:16;;;;;;;2.70;1.80;;;1.40;99.90;;;;;;5093775;28;20031;-74
2021/11/30 08:46:43;;;;;;;4.47;2.13;;;1.40;99.90;;;;;;5092235;28;20059;-74
2021/11/30 08:49:08;;;;;;;3.58;1.63;;;1.40;99.90;;;;;;5089728;28;20044;-68
2021/11/30 08:51:34;;;;;;;3.97;1.80;;;1.50;99.90;;;;;;5095153;28;20123;-72
2021/11/30 08:54:00;;;;;;;4.55;1.70;;;1.50;99.90;;;;;;5095650;28;20028;-72
2021/11/30 08:56:26;;;;;;;3.63;1.80;;;1.40;99.90;;;;;;5093676;28;20034;-72
2021/11/30 08:58:52;;;;;;;3.65;1.58;;;1.40;99.90;;;;;;5093873;28;20376;-72
2021/11/30 09:01:20;;;;;;;5.07;1.90;;;1.50;99.90;;;;;;5091474;28;20485;-73
2021/11/30 09:03:46;;;;;;;3.47;1.98;;;1.50;99.90;;;;;;5094086;28;20073;-74
2021/11/30 09:06:11;;;;;;;2.65;1.52;;;1.40;99.90;;;;;;5092628;28;20020;-72
2021/11/30 09:08:37;;;;;;;3.33;1.90;;;1.50;99.90;;;;;;5093732;28;20031;-74
2021/11/30 09:11:09;;;;;;;5.90;2.15;;;1.60;99.90;;;;;;5092655;28;20031;-68
2021/11/30 09:13:34;;;;;;;2.25;1.90;;;1.60;99.90;;;;;;5093194;28;20140;-73
2021/11/30 09:16:00;;;;;;;3.60;1.95;;;1.60;99.90;;;;;;5093471;28;20024;-73
2021/11/30 09:18:30;;;;;;;3.47;1.80;;;1.70;99.90;;;;;;5091915;28;20152;-72
2021/11/30 09:20:57;;;;;;;5.05;1.50;;;1.70;99.90;;;;;;5091898;28;20527;-70
2021/11/30 09:23:23;;;;;;;3.70;1.67;;;1.80;99.90;;;;;;5093062;28;20032;-71
2021/11/30 09:25:49;;;;;;;4.00;1.40;;;1.80;99.90;;;;;;5093139;28;20028;-72
2021/11/30 09:28:15;;;;;;;3.95;1.63;;;1.80;99.90;;;;;;5088781;28;20036;-72
2021/11/30 09:30:41;;;;;;;2.65;1.30;;;1.90;99.90;;;;;;5099367;28;20032;-72
2021/11/30 09:33:08;;;;;;;3.92;1.67;;;1.90;99.90;;;;;;5094158;28;20047;-68
2021/11/30 09:35:34;;;;;;;2.33;1.00;;;1.90;99.90;;;;;;5093531;28;20032;-72
2021/11/30 09:37:59;;;;;;;3.80;1.23;;;1.90;99.90;;;;;;5093629;28;20038;-72
2021/11/30 09:40:28;;;;;;;3.60;1.45;;;2.00;99.90;;;;;;5092352;28;20067;-72
2021/11/30 09:42:53;;;;;;;1.77;1.10;;;2.00;99.90;;;;;;5092556;28;20074;-72
2021/11/30 09:45:21;;;;;;;3.50;1.13;;;2.10;99.90;;;;;;5091970;28;20059;-72
2021/11/30 09:47:47;;;;;;;2.75;1.30;;;2.10;99.90;;;;;;5091502;28;20491;-71
2021/11/30 09:50:17;;;;;;;1.67;1.08;;;2.10;99.90;;;;;;5091087;28;20493;-72
2021/11/30 09:52:44;;;;;;;2.92;1.13;;;2.20;99.90;;;;;;5093047;28;20051;-73
2021/11/30 09:55:14;;;;;;;2.75;1.00;;;2.20;99.90;;;;;;5092306;28;20071;-70
2021/11/30 09:57:40;;;;;;;2.97;0.90;;;2.20;99.90;;;;;;5092651;28;20499;-73
2021/11/30 10:00:14;;;;;;;2.95;0.88;;;2.20;99.90;;;;;;5092107;28;20040;-69
2021/11/30 10:02:40;;;;;;;3.22;1.10;;;2.20;99.90;;;;;;5092510;28;20035;-73
2021/11/30 10:05:12;;;;;;;2.58;0.75;;;2.30;99.90;;;;;;5092537;28;20107;-70
2021/11/30 10:07:44;;;;;;;6.13;0.93;;;2.30;99.90;;;;;;5093113;28;20059;-74
2021/11/30 10:10:14;;;;;;;3.20;1.10;;;2.40;99.90;;;;;;5091229;28;20043;-68
2021/11/30 10:12:40;;;;;;;1.58;0.73;;;2.30;99.90;;;;;;5093151;28;20058;-74
2021/11/30 10:15:13;;;;;;;4.90;0.88;;;2.30;99.90;;;;;;5091434;28;20031;-70
2021/11/30 10:17:39;;;;;;;1.52;0.70;;;2.30;99.90;;;;;;5091534;28;20389;-74
2021/11/30 10:20:13;;;;;;;1.00;0.75;;;2.30;99.90;;;;;;5089563;28;20028;-74
2021/11/30 10:22:53;;;;;;;1.52;0.73;;;2.30;99.90;;;;;;5092098;28;20393;-73
2021/11/30 10:25:34;;;;;;;1.15;0.70;;;2.30;99.90;;;;;;5091275;28;20120;-73
2021/11/30 10:28:01;;;;;;;1.20;0.80;;;2.30;99.90;;;;;;5090761;28;20040;-74
2021/11/30 10:30:30;;;;;;;0.98;0.60;;;2.20;99.90;;;;;;5091130;28;20028;-74
2021/11/30 10:33:01;;;;;;;0.75;0.43;;;2.20;99.90;;;;;;5092441;28;20362;-74
2021/11/30 10:35:29;;;;;;;2.80;1.00;;;2.20;99.90;;;;;;5090697;28;20633;-73
2021/11/30 10:37:57;;;;;;;1.88;0.70;;;2.10;99.90;;;;;;5092527;28;20101;-73
2021/11/30 10:40:29;;;;;;;3.10;0.68;;;2.10;99.90;;;;;;5090753;28;20031;-73
2021/11/30 10:43:02;;;;;;;1.33;0.65;;;2.10;99.90;;;;;;5088254;28;20038;-74
2021/11/30 10:45:40;;;;;;;1.17;0.65;;;2.10;99.90;;;;;;5074699;28;20157;-73
2021/11/30 10:48:24;;;;;;;4.75;0.90;;;2.10;99.90;;;;;;5096869;28;20105;-74
2021/11/30 10:50:54;;;;;;;1.23;0.40;;;2.10;99.90;;;;;;5105174;28;20233;-74
2021/11/30 10:53:30;;;;;;;0.80;0.60;;;2.20;99.90;;;;;;5093055;28;20062;-73
2021/11/30 10:56:05;;;;;;;3.88;0.75;;;2.20;99.90;;;;;;5091848;28;20107;-73
2021/11/30 10:58:37;;;;;;;2.13;1.08;;;2.20;99.90;;;;;;5090721;28;20020;-71
2021/11/30 11:01:10;;;;;;;0.95;0.80;;;2.10;99.90;;;;;;5091933;28;20085;-73
2021/11/30 11:03:36;;;;;;;2.38;0.60;;;2.10;99.90;;;;;;5092251;28;20032;-74
2021/11/30 11:08:57;;;;;;;0.90;0.60;;;2.00;99.90;;;;;;5091601;28;20051;-74
2021/11/30 11:11:29;;;;;;;1.58;0.70;;;2.00;99.90;;;;;;5091047;28;20064;-74
2021/11/30 11:13:55;;;;;;;1.05;0.50;;;2.00;99.90;;;;;;5091653;28;20052;-74
2021/11/30 11:16:29;;;;;;;1.10;0.60;;;2.00;99.90;;;;;;5090917;28;20027;-74
2021/11/30 11:18:58;;;;;;;1.50;0.70;;;2.00;99.90;;;;;;5089859;28;20462;-72
2021/11/30 11:21:29;;;;;;;1.63;0.52;;;2.00;99.90;;;;;;5090921;28;20032;-73
2021/11/30 11:24:17;;;;;;;1.52;0.70;;;2.00;99.90;;;;;;5091854;28;20028;-79
2021/11/30 11:26:44;;;;;;;2.45;1.02;;;2.00;99.90;;;;;;5090787;28;20028;-79
2021/11/30 11:29:27;;;;;;;2.13;1.40;;;2.00;99.90;;;;;;5091397;28;20028;-78
2021/11/30 11:31:57;;;;;;;6.72;3.17;;;2.00;99.90;;;;;;5090241;28;20047;-78
2021/11/30 11:34:26;;;;;;;0.80;0.80;;;2.10;99.90;;;;;;5089426;28;20385;-70
2021/11/30 11:36:53;;;;;;;2.42;1.25;;;2.10;99.90;;;;;;5090655;28;20488;-69
2021/11/30 11:39:21;;;;;;;2.63;0.40;;;2.10;99.90;;;;;;5090680;28;20093;-69
2021/11/30 11:41:58;;;;;;;1.95;0.57;;;2.10;99.90;;;;;;5091911;28;20089;-70
2021/11/30 11:44:25;;;;;;;1.17;0.50;;;2.10;99.90;;;;;;5090712;28;20036;-69
2021/11/30 11:46:53;;;;;;;3.03;0.63;;;2.20;99.90;;;;;;5087669;28;20040;-69
2021/11/30 11:49:21;;;;;;;4.00;1.17;;;2.10;99.90;;;;;;5092053;28;20040;-69
2021/11/30 11:51:49;;;;;;;0.60;0.45;;;2.10;99.90;;;;;;5093424;28;20035;-69
2021/11/30 11:54:23;;;;;;;17.90;7.65;;;2.20;99.90;;;;;;5090370;28;20372;-69
2021/11/30 11:57:20;;;;;;;0.80;0.63;;;2.20;99.90;;;;;;5089972;28;20028;-69
2021/11/30 11:59:47;;;;;;;1.52;0.88;;;2.30;99.90;;;;;;5070279;28;20136;-70
2021/11/30 12:02:25;;;;;;;1.02;0.60;;;2.40;99.90;;;;;;5070851;28;20094;-69
2021/11/30 12:04:59;;;;;;;1.05;0.50;;;2.40;99.90;;;;;;5087781;28;20024;-69
2021/11/30 12:07:28;;;;;;;1.10;0.60;;;2.30;99.90;;;;;;5090680;28;20028;-69
2021/11/30 12:10:16;;;;;;;2.33;0.60;;;2.40;99.90;;;;;;5090562;28;20024;-68
2021/11/30 12:12:53;;;;;;;0.32;0.32;;;2.40;99.90;;;;;;5090899;28;20032;-67
2021/11/30 12:15:19;;;;;;;0.80;0.52;;;2.40;99.90;;;;;;5090739;28;20069;-67
2021/11/30 12:17:44;;;;;;;1.73;0.77;;;2.40;99.90;;;;;;5089275;28;20021;-68
2021/11/30 12:20:12;;;;;;;1.17;0.60;;;2.40;99.90;;;;;;5088827;28;20134;-68
2021/11/30 12:22:44;;;;;;;0.98;0.65;;;2.40;99.90;;;;;;5089982;28;20040;-68
2021/11/30 12:25:26;;;;;;;0.88;0.80;;;2.40;99.90;;;;;;5089975;28;20500;-68
2021/11/30 12:28:04;;;;;;;1.10;0.60;;;2.30;99.90;;;;;;5091362;28;20024;-68
2021/11/30 12:30:44;;;;;;;0.77;0.57;;;2.30;99.90;;;;;;5090190;28;20439;-68
2021/11/30 12:33:23;;;;;;;1.60;0.70;;;2.30;99.90;;;;;;5091626;28;20036;-68
2021/11/30 12:35:58;;;;;;;0.80;0.77;;;2.30;99.90;;;;;;5094860;28;20032;-69
2021/11/30 12:38:33;;;;;;;7.07;1.45;;;2.30;99.90;;;;;;5093682;28;20047;-68
2021/11/30 12:41:21;;;;;;;0.63;0.50;;;2.30;99.90;;;;;;5094449;28;20043;-68
2021/11/30 12:43:47;;;;;;;3.58;0.82;;;2.30;99.90;;;;;;5094368;28;20481;-69
2021/11/30 12:46:38;;;;;;;2.85;0.60;;;2.40;99.90;;;;;;5093606;28;20067;-68
2021/11/30 12:49:29;;;;;;;1.75;0.60;;;2.30;99.90;;;;;;5090767;28;20395;-68
2021/11/30 12:52:07;;;;;;;1.70;0.52;;;2.30;99.90;;;;;;5091838;28;20522;-68
2021/11/30 12:54:35;;;;;;;0.50;0.30;;;2.30;99.90;;;;;;5092486;28;20543;-68
2021/11/30 12:57:04;;;;;;;1.55;0.50;;;2.40;99.90;;;;;;5093850;28;20117;-68
2021/11/30 12:59:41;;;;;;;1.00;0.57;;;2.30;99.90;;;;;;5092585;28;20473;-68
2021/11/30 13:02:37;;;;;;;2.05;0.98;;;2.40;99.90;;;;;;5079342;28;20034;-68
2021/11/30 13:05:13;;;;;;;2.13;1.08;;;2.40;99.90;;;;;;5093838;28;20028;-69
2021/11/30 13:07:48;;;;;;;0.77;0.45;;;2.30;99.90;;;;;;5093435;28;20604;-69
2021/11/30 13:10:24;;;;;;;1.05;0.50;;;2.30;99.90;;;;;;5093852;28;20346;-68
2021/11/30 13:12:52;;;;;;;0.30;0.30;;;2.30;99.90;;;;;;5094365;28;20025;-69
2021/11/30 13:15:18;;;;;;;1.38;0.50;;;2.30;99.90;;;;;;5093926;28;20365;-68
2021/11/30 13:17:45;;;;;;;1.02;0.45;;;2.30;99.90;;;;;;5094461;28;20027;-68